Time;durP1;ratioP1;P1;durP2;ratioP2;P2;SDS_P1;SDS_P2;PMS_P1;PMS_P2;Temp;Humidity;BMP_temperature;BMP_pressure;BME280_temperature;BME280_humidity;BME280_pressure;Samples;Min_cycle;Max_cycle;Signal;HPM_P1;HPM_P2
2021/12/16 00:06:03;;;;;;;68.78;30.05;;;;;;;;;;5052319;28;20083;-68
2021/12/16 00:08:37;;;;;;;63.38;30.10;;;;;;;;;;5052596;28;20053;-67
2021/12/16 00:19:28;;;;;;;65.28;28.75;;;;;;;;;;5052558;28;20033;-68
2021/12/16 00:20:01;;;;;;;62.20;27.65;;;;;;;;;;5057515;28;20119;-68
2021/12/16 00:33:40;;;;;;;60.78;26.92;;;;;;;;;;5071580;28;20040;-68
2021/12/16 00:36:07;;;;;;;60.65;27.20;;;;;;;;;;5111255;28;20032;-67
2021/12/16 00:38:34;;;;;;;58.10;25.73;;;;;;;;;;5112950;28;20045;-67
2021/12/16 00:41:00;;;;;;;56.80;27.15;;;;;;;;;;5093103;28;20108;-68
2021/12/16 00:43:38;;;;;;;48.53;26.30;;;;;;;;;;5105099;28;20100;-68
2021/12/16 00:54:11;;;;;;;61.35;27.65;;;;;;;;;;5069050;28;20542;-68
2021/12/16 00:56:44;;;;;;;57.22;26.60;;;;;;;;;;5061448;28;20061;-67
2021/12/16 00:59:12;;;;;;;58.78;27.50;;;;;;;;;;5050916;28;20088;-67
2021/12/16 01:01:53;;;;;;;52.40;26.40;;;;;;;;;;5059593;28;20069;-67
2021/12/16 01:38:07;;;;;;;61.22;28.10;;;;;;;;;;5070836;28;20451;-68
2021/12/16 01:51:17;;;;;;;72.32;29.05;;;;;;;;;;5102413;28;20108;-68
2021/12/16 01:54:16;;;;;;;64.68;29.73;;;;;;;;;;5095097;28;20048;-68
2021/12/16 01:56:46;;;;;;;65.43;28.98;;;;;;;;;;5095326;28;20562;-68
2021/12/16 01:59:18;;;;;;;64.00;29.65;;;;;;;;;;5113493;28;20108;-67
2021/12/16 02:01:44;;;;;;;60.85;30.08;;;;;;;;;;5108389;28;20040;-68
2021/12/16 02:04:29;;;;;;;68.82;30.73;;;;;;;;;;5090427;28;20048;-67
2021/12/16 02:09:39;;;;;;;69.55;29.20;;;;;;;;;;5094578;28;20052;-68
2021/12/16 02:12:43;;;;;;;60.63;26.63;;;;;;;;;;5074826;28;20100;-68
2021/12/16 02:29:10;;;;;;;75.65;31.75;;;;;;;;;;5103431;28;20049;-68
2021/12/16 02:31:55;;;;;;;79.30;31.42;;;;;;;;;;5106770;28;20395;-68
2021/12/16 02:37:15;;;;;;;75.13;30.75;;;;;;;;;;5110368;28;20048;-67
2021/12/16 02:39:42;;;;;;;76.13;30.95;;;;;;;;;;5108033;28;20052;-68
2021/12/16 02:42:16;;;;;;;73.13;31.27;;;;;;;;;;5105528;28;20069;-69
2021/12/16 02:50:12;;;;;;;66.13;29.65;;;;;;;;;;5114118;28;20048;-67
2021/12/16 02:52:38;;;;;;;67.43;30.27;;;;;;;;;;5104174;28;20048;-67
2021/12/16 02:55:09;;;;;;;76.72;33.67;;;;;;;;;;5100779;28;20056;-68
2021/12/16 02:57:44;;;;;;;73.20;31.17;;;;;;;;;;5095093;28;20059;-68
2021/12/16 03:00:12;;;;;;;72.65;31.40;;;;;;;;;;5101681;28;20053;-68
2021/12/16 03:02:39;;;;;;;75.95;31.10;;;;;;;;;;5106665;28;20048;-68
2021/12/16 03:05:06;;;;;;;84.40;32.50;;;;;;;;;;5099623;28;20047;-67
2021/12/16 03:07:32;;;;;;;76.78;31.42;;;;;;;;;;5095860;28;20072;-67
2021/12/16 03:15:42;;;;;;;;;;;;;;;;;;5110538;28;20066;-68
2021/12/16 03:18:33;;;;;;;66.25;30.88;;;;;;;;;;5113179;28;19924;-67
2021/12/16 03:21:05;;;;;;;66.78;29.98;;;;;;;;;;5104950;28;20103;-69
2021/12/16 03:24:02;;;;;;;67.10;29.98;;;;;;;;;;5109139;28;20049;-68
2021/12/16 03:39:37;;;;;;;73.75;33.25;;;;;;;;;;5113021;28;20039;-68
2021/12/16 03:42:03;;;;;;;63.53;30.42;;;;;;;;;;5092164;28;20047;-67
2021/12/16 03:44:47;;;;;;;73.20;31.73;;;;;;;;;;5108015;28;20055;-68
2021/12/16 03:47:14;;;;;;;68.07;29.90;;;;;;;;;;5094484;28;20110;-67
2021/12/16 03:49:40;;;;;;;75.97;32.40;;;;;;;;;;5103515;28;20082;-67
2021/12/16 03:52:08;;;;;;;75.28;31.95;;;;;;;;;;5108744;28;20021;-68
2021/12/16 03:54:38;;;;;;;78.05;32.35;;;;;;;;;;5095027;28;20076;-68
2021/12/16 03:57:06;;;;;;;75.28;30.63;;;;;;;;;;5093697;28;20096;-68
2021/12/16 03:59:33;;;;;;;69.80;30.83;;;;;;;;;;5104351;28;20104;-68
2021/12/16 04:02:00;;;;;;;70.70;30.58;;;;;;;;;;5098887;28;20394;-67
2021/12/16 04:04:26;;;;;;;77.13;31.55;;;;;;;;;;5104256;28;20040;-67
2021/12/16 04:06:53;;;;;;;69.05;30.13;;;;;;;;;;5105528;28;20057;-67
2021/12/16 04:09:19;;;;;;;68.30;30.40;;;;;;;;;;5094201;28;20040;-68
2021/12/16 04:11:51;;;;;;;79.38;33.47;;;;;;;;;;5134282;27;20189;-67
2021/12/16 04:14:18;;;;;;;72.32;29.80;;;;;;;;;;5104293;28;20103;-67
2021/12/16 04:16:49;;;;;;;71.68;30.00;;;;;;;;;;5114884;28;20044;-68
2021/12/16 04:19:18;;;;;;;81.10;33.67;;;;;;;;;;5105874;28;20049;-67
2021/12/16 04:21:46;;;;;;;77.10;32.60;;;;;;;;;;5102823;28;20036;-67
2021/12/16 04:24:12;;;;;;;80.40;33.22;;;;;;;;;;5095237;28;20097;-66
2021/12/16 04:26:39;;;;;;;76.47;32.67;;;;;;;;;;5104251;28;20045;-68
2021/12/16 04:29:06;;;;;;;71.72;31.45;;;;;;;;;;5097421;28;20110;-68
2021/12/16 04:31:33;;;;;;;78.22;33.60;;;;;;;;;;5111460;28;20025;-68
2021/12/16 04:33:59;;;;;;;76.47;31.67;;;;;;;;;;5109389;28;20043;-68
2021/12/16 04:36:25;;;;;;;67.10;30.52;;;;;;;;;;5105821;28;20088;-68
2021/12/16 04:38:52;;;;;;;75.82;30.65;;;;;;;;;;5114558;28;20047;-67
2021/12/16 04:41:18;;;;;;;80.47;31.30;;;;;;;;;;5107501;28;20033;-66
2021/12/16 04:43:47;;;;;;;76.85;30.63;;;;;;;;;;5097993;28;20074;-67
2021/12/16 04:46:15;;;;;;;86.07;32.72;;;;;;;;;;5114846;28;20052;-68
2021/12/16 04:48:43;;;;;;;79.85;31.30;;;;;;;;;;5119182;28;20051;-67
2021/12/16 04:51:09;;;;;;;83.13;33.65;;;;;;;;;;5112955;28;20044;-67
2021/12/16 04:53:36;;;;;;;81.63;33.67;;;;;;;;;;5116510;28;20032;-68
2021/12/16 04:56:03;;;;;;;77.50;30.88;;;;;;;;;;5100925;28;20099;-68
2021/12/16 04:58:29;;;;;;;76.82;31.55;;;;;;;;;;5118251;28;20047;-68
2021/12/16 05:00:56;;;;;;;76.93;30.45;;;;;;;;;;5100207;28;20040;-67
2021/12/16 05:03:22;;;;;;;85.95;33.25;;;;;;;;;;5097300;28;20040;-69
2021/12/16 05:05:49;;;;;;;79.57;30.52;;;;;;;;;;5116353;28;20076;-67
2021/12/16 05:08:15;;;;;;;82.40;30.92;;;;;;;;;;5117059;28;20104;-67
2021/12/16 05:10:41;;;;;;;71.88;29.80;;;;;;;;;;5100341;28;20044;-67
2021/12/16 05:13:07;;;;;;;78.00;32.30;;;;;;;;;;5098202;28;20040;-67
2021/12/16 05:15:37;;;;;;;68.97;28.77;;;;;;;;;;5097350;28;20068;-68
2021/12/16 05:18:05;;;;;;;69.05;29.95;;;;;;;;;;5098241;28;20045;-67
2021/12/16 05:20:32;;;;;;;80.47;31.83;;;;;;;;;;5110915;28;20040;-68
2021/12/16 05:28:54;;;;;;;73.60;28.52;;;;;;;;;;5023146;28;20057;-67
2021/12/16 05:31:22;;;;;;;77.05;29.88;;;;;;;;;;5039064;28;20083;-68
2021/12/16 05:33:48;;;;;;;66.72;27.95;;;;;;;;;;5056239;28;20045;-67
2021/12/16 05:36:15;;;;;;;81.07;30.10;;;;;;;;;;5038360;28;20033;-67
2021/12/16 05:38:41;;;;;;;74.10;30.70;;;;;;;;;;5038173;28;20069;-68
2021/12/16 05:41:08;;;;;;;79.93;32.28;;;;;;;;;;5055159;28;20052;-68
2021/12/16 05:43:34;;;;;;;65.60;28.60;;;;;;;;;;5055105;28;20137;-68
2021/12/16 05:46:03;;;;;;;80.43;29.58;;;;;;;;;;5037447;28;20076;-68
2021/12/16 05:48:31;;;;;;;82.65;30.92;;;;;;;;;;5053708;28;20080;-67
2021/12/16 05:51:02;;;;;;;80.77;29.03;;;;;;;;;;5037799;28;20064;-69
2021/12/16 05:53:28;;;;;;;75.57;29.85;;;;;;;;;;5038942;28;20057;-68
2021/12/16 05:55:54;;;;;;;74.30;28.60;;;;;;;;;;5055204;28;20041;-68
2021/12/16 05:58:21;;;;;;;90.65;30.80;;;;;;;;;;5038416;28;20040;-68
2021/12/16 06:00:49;;;;;;;64.70;27.77;;;;;;;;;;5054864;28;20072;-68
2021/12/16 06:03:16;;;;;;;68.00;28.55;;;;;;;;;;5100585;28;20044;-68
2021/12/16 06:05:43;;;;;;;67.15;28.00;;;;;;;;;;5114723;28;20091;-68
2021/12/16 06:08:09;;;;;;;65.10;27.83;;;;;;;;;;5098942;28;20048;-68
2021/12/16 06:13:08;;;;;;;72.80;28.73;;;;;;;;;;5113616;28;20055;-68
2021/12/16 06:28:51;;;;;;;60.22;26.77;;;;;;;;;;5110959;28;20040;-67
2021/12/16 06:31:17;;;;;;;74.97;29.30;;;;;;;;;;5109232;28;20036;-68
2021/12/16 06:33:43;;;;;;;69.03;28.55;;;;;;;;;;5097490;28;20118;-68
2021/12/16 06:36:09;;;;;;;106.72;33.08;;;;;;;;;;5102336;28;20461;-68
2021/12/16 06:38:35;;;;;;;93.43;30.40;;;;;;;;;;5106599;28;20116;-68
2021/12/16 06:41:02;;;;;;;75.72;30.70;;;;;;;;;;5097154;28;20070;-68
2021/12/16 06:43:29;;;;;;;66.95;28.05;;;;;;;;;;5112841;28;20066;-68
2021/12/16 06:45:57;;;;;;;69.53;27.98;;;;;;;;;;5097989;28;20048;-68
2021/12/16 06:48:28;;;;;;;75.50;29.23;;;;;;;;;;5106636;28;20055;-68
2021/12/16 06:50:59;;;;;;;71.15;29.85;;;;;;;;;;5097905;28;20051;-66
2021/12/16 06:53:36;;;;;;;77.93;29.40;;;;;;;;;;5102500;28;20074;-67
2021/12/16 06:56:11;;;;;;;65.55;28.58;;;;;;;;;;5110606;28;20048;-68
2021/12/16 06:59:02;;;;;;;68.25;26.45;;;;;;;;;;5113479;28;20047;-68
2021/12/16 07:01:40;;;;;;;72.45;27.02;;;;;;;;;;5112250;28;20081;-68
2021/12/16 07:04:07;;;;;;;79.15;28.98;;;;;;;;;;5105484;28;20052;-68
2021/12/16 07:06:34;;;;;;;65.35;27.20;;;;;;;;;;5073549;28;20036;-69
2021/12/16 07:09:09;;;;;;;67.72;27.42;;;;;;;;;;5114764;28;20083;-68
2021/12/16 07:11:40;;;;;;;133.80;37.63;;;;;;;;;;5093229;28;20070;-69
2021/12/16 07:14:12;;;;;;;78.57;29.38;;;;;;;;;;5098678;28;20072;-68
2021/12/16 07:16:38;;;;;;;64.82;28.23;;;;;;;;;;5113648;28;20098;-68
2021/12/16 07:19:05;;;;;;;68.35;27.60;;;;;;;;;;5091357;28;20036;-68
2021/12/16 07:21:37;;;;;;;80.18;29.30;;;;;;;;;;5095199;28;20039;-68
2021/12/16 07:24:04;;;;;;;79.82;31.70;;;;;;;;;;5096114;28;20036;-69
2021/12/16 07:26:30;;;;;;;100.57;33.47;;;;;;;;;;5113161;28;20036;-69
2021/12/16 07:28:56;;;;;;;73.95;29.85;;;;;;;;;;5105749;28;20051;-68
2021/12/16 07:31:22;;;;;;;77.78;31.63;;;;;;;;;;5100369;28;20048;-68
2021/12/16 07:33:51;;;;;;;92.38;33.50;;;;;;;;;;5095117;28;20042;-68
2021/12/16 07:36:19;;;;;;;83.85;31.58;;;;;;;;;;5093971;28;20103;-67
2021/12/16 07:38:58;;;;;;;86.70;32.92;;;;;;;;;;5103895;28;20052;-68
2021/12/16 07:41:31;;;;;;;88.85;31.67;;;;;;;;;;5113517;28;20054;-69
2021/12/16 07:44:10;;;;;;;102.43;32.13;;;;;;;;;;5103741;28;20029;-68
2021/12/16 07:46:40;;;;;;;97.63;32.08;;;;;;;;;;5099986;28;20050;-68
2021/12/16 07:49:07;;;;;;;93.63;30.65;;;;;;;;;;5115345;28;20048;-68
2021/12/16 07:51:33;;;;;;;141.10;37.60;;;;;;;;;;5114147;28;20070;-67
2021/12/16 07:54:00;;;;;;;120.35;37.08;;;;;;;;;;5110959;28;20048;-68
2021/12/16 07:56:26;;;;;;;87.85;30.85;;;;;;;;;;5094245;28;20108;-67
2021/12/16 07:59:00;;;;;;;102.65;34.58;;;;;;;;;;5114288;28;20115;-71
2021/12/16 08:01:27;;;;;;;100.72;33.10;;;;;;;;;;5110697;28;20099;-68
2021/12/16 08:03:53;;;;;;;93.43;32.35;;;;;;;;;;5112890;28;20055;-68
2021/12/16 08:06:23;;;;;;;150.32;39.42;;;;;;;;;;5115538;28;20072;-67
2021/12/16 08:08:49;;;;;;;124.55;34.90;;;;;;;;;;5107255;28;20036;-68
2021/12/16 08:11:16;;;;;;;137.13;37.70;;;;;;;;;;5114009;28;20074;-68
2021/12/16 08:13:42;;;;;;;92.32;31.15;;;;;;;;;;5098045;28;20076;-68
2021/12/16 08:16:08;;;;;;;120.28;36.28;;;;;;;;;;5108583;28;20209;-68
2021/12/16 08:18:34;;;;;;;100.13;32.83;;;;;;;;;;5114242;28;20036;-67
2021/12/16 08:21:00;;;;;;;114.90;36.78;;;;;;;;;;5117580;28;20101;-69
2021/12/16 08:23:26;;;;;;;98.97;33.40;;;;;;;;;;5117940;28;20032;-68
2021/12/16 08:25:52;;;;;;;303.27;62.90;;;;;;;;;;5114039;28;20044;-68
2021/12/16 08:28:18;;;;;;;179.18;48.05;;;;;;;;;;5105781;28;20036;-68
2021/12/16 08:30:46;;;;;;;179.43;46.03;;;;;;;;;;5098058;28;20048;-69
2021/12/16 08:33:13;;;;;;;117.88;36.63;;;;;;;;;;5107497;28;20095;-68
2021/12/16 08:35:40;;;;;;;127.72;36.55;;;;;;;;;;5113728;28;20463;-68
2021/12/16 08:38:07;;;;;;;149.55;39.10;;;;;;;;;;5102007;28;20111;-68
2021/12/16 08:40:34;;;;;;;140.68;39.60;;;;;;;;;;5110089;28;20035;-67
2021/12/16 08:43:00;;;;;;;183.07;47.85;;;;;;;;;;5098390;28;20060;-67
2021/12/16 08:45:28;;;;;;;183.48;47.55;;;;;;;;;;5101295;28;20052;-70
2021/12/16 08:47:54;;;;;;;180.38;46.72;;;;;;;;;;5108013;28;20036;-68
2021/12/16 08:50:22;;;;;;;137.73;40.30;;;;;;;;;;5101175;28;20052;-69
2021/12/16 08:52:59;;;;;;;108.13;35.08;;;;;;;;;;5112794;28;20045;-68
2021/12/16 08:55:26;;;;;;;115.35;36.55;;;;;;;;;;5108508;28;20089;-68
2021/12/16 08:57:53;;;;;;;95.70;32.55;;;;;;;;;;5118545;28;20063;-68
2021/12/16 09:00:22;;;;;;;97.68;34.33;;;;;;;;;;5112363;28;20039;-68
2021/12/16 09:02:48;;;;;;;101.10;35.17;;;;;;;;;;5117426;28;20044;-68
2021/12/16 09:05:14;;;;;;;96.95;34.78;;;;;;;;;;5097785;28;20028;-69
2021/12/16 09:07:45;;;;;;;115.00;35.58;;;;;;;;;;5098433;28;20083;-68
2021/12/16 09:10:12;;;;;;;109.43;35.63;;;;;;;;;;5098109;28;20048;-68
2021/12/16 09:12:51;;;;;;;106.70;34.63;;;;;;;;;;5107506;28;20080;-68
2021/12/16 09:15:17;;;;;;;;;;;;;;;;;;5115834;28;20496;-68
2021/12/16 09:17:43;;;;;;;101.38;34.28;;;;;;;;;;5112717;28;19920;-68
2021/12/16 09:20:13;;;;;;;143.23;40.97;;;;;;;;;;5113104;28;20142;-68
2021/12/16 09:22:39;;;;;;;92.43;32.88;;;;;;;;;;5117658;28;20134;-68
2021/12/16 09:25:06;;;;;;;122.93;37.35;;;;;;;;;;5116526;28;20020;-68
2021/12/16 09:27:32;;;;;;;112.57;35.35;;;;;;;;;;5111901;28;20106;-68
2021/12/16 09:29:58;;;;;;;105.20;35.47;;;;;;;;;;5117895;28;20052;-68
2021/12/16 09:32:28;;;;;;;150.70;40.90;;;;;;;;;;5116815;28;20070;-68
2021/12/16 09:34:55;;;;;;;106.43;33.80;;;;;;;;;;5118110;28;20044;-68
2021/12/16 09:37:21;;;;;;;118.88;37.58;;;;;;;;;;5117142;28;20040;-68
2021/12/16 09:39:47;;;;;;;124.38;36.25;;;;;;;;;;5116762;28;20032;-68
2021/12/16 09:42:13;;;;;;;190.02;45.33;;;;;;;;;;5118177;28;20027;-68
2021/12/16 09:44:40;;;;;;;155.55;42.63;;;;;;;;;;5116747;28;20020;-67
2021/12/16 09:47:08;;;;;;;111.18;33.60;;;;;;;;;;5116417;28;20135;-67
2021/12/16 09:49:34;;;;;;;111.32;35.65;;;;;;;;;;5118205;28;20055;-68
2021/12/16 09:52:01;;;;;;;108.70;33.08;;;;;;;;;;5117905;28;20051;-68
2021/12/16 09:54:29;;;;;;;102.57;33.40;;;;;;;;;;5117589;28;20036;-67
2021/12/16 09:56:55;;;;;;;110.38;35.00;;;;;;;;;;5117200;28;20068;-67
2021/12/16 09:59:23;;;;;;;98.93;32.53;;;;;;;;;;5116902;28;20043;-68
2021/12/16 10:01:50;;;;;;;91.63;30.58;;;;;;;;;;5113416;28;20051;-68
2021/12/16 10:04:23;;;;;;;98.20;30.42;;;;;;;;;;5115705;28;20040;-68
2021/12/16 10:06:51;;;;;;;121.97;33.60;;;;;;;;;;5115225;28;20067;-68
2021/12/16 10:09:17;;;;;;;138.43;35.90;;;;;;;;;;5117113;28;20061;-67
2021/12/16 10:11:45;;;;;;;114.53;32.35;;;;;;;;;;5116545;28;20052;-67
2021/12/16 10:19:23;;;;;;;108.07;32.58;;;;;;;;;;5115442;28;20404;-68
2021/12/16 10:21:49;;;;;;;139.68;37.55;;;;;;;;;;5114416;28;20067;-68
2021/12/16 10:24:26;;;;;;;84.55;29.48;;;;;;;;;;5114636;28;20036;-68
2021/12/16 10:27:11;;;;;;;86.05;28.98;;;;;;;;;;5115348;28;20044;-69
2021/12/16 10:29:39;;;;;;;104.72;31.25;;;;;;;;;;5117863;28;20052;-68
2021/12/16 10:32:06;;;;;;;91.90;29.33;;;;;;;;;;5111670;28;20122;-70
2021/12/16 10:34:32;;;;;;;81.45;30.63;;;;;;;;;;5116552;28;20036;-70
2021/12/16 10:36:59;;;;;;;124.40;33.50;;;;;;;;;;5117611;28;20083;-68
2021/12/16 10:39:26;;;;;;;314.10;68.32;;;;;;;;;;5116009;28;20036;-68
2021/12/16 10:42:04;;;;;;;101.22;32.28;;;;;;;;;;5117076;28;20040;-68
2021/12/16 10:44:33;;;;;;;115.68;30.83;;;;;;;;;;5114477;28;20048;-67
2021/12/16 10:47:00;;;;;;;118.97;32.67;;;;;;;;;;5116574;28;20110;-68
2021/12/16 10:49:30;;;;;;;98.47;29.48;;;;;;;;;;5115449;28;20140;-67
2021/12/16 10:51:58;;;;;;;124.95;31.73;;;;;;;;;;5100817;28;20416;-68
2021/12/16 10:54:24;;;;;;;120.50;32.13;;;;;;;;;;5118030;28;20040;-67
2021/12/16 10:57:10;;;;;;;123.85;35.10;;;;;;;;;;5118708;28;20065;-68
2021/12/16 11:00:06;;;;;;;96.75;28.85;;;;;;;;;;5119220;28;20054;-67
2021/12/16 11:02:33;;;;;;;113.60;30.08;;;;;;;;;;5102316;28;20052;-68
2021/12/16 11:05:11;;;;;;;75.50;26.38;;;;;;;;;;5115044;28;20040;-68
2021/12/16 11:07:42;;;;;;;196.63;45.00;;;;;;;;;;5116935;28;20036;-68
2021/12/16 11:10:13;;;;;;;118.47;30.60;;;;;;;;;;5114756;28;20040;-67
2021/12/16 11:12:42;;;;;;;127.90;32.45;;;;;;;;;;5114842;28;20061;-68
2021/12/16 11:15:08;;;;;;;;;;;;;;;;;;5114324;28;20152;-69
2021/12/16 11:17:36;;;;;;;131.43;31.88;;;;;;;;;;5096995;28;19927;-68
2021/12/16 11:20:07;;;;;;;127.53;31.85;;;;;;;;;;5115730;28;20040;-67
2021/12/16 11:22:35;;;;;;;112.05;30.42;;;;;;;;;;5097203;28;20045;-67
2021/12/16 11:25:18;;;;;;;118.70;30.25;;;;;;;;;;5114832;28;20044;-68
2021/12/16 11:27:47;;;;;;;156.63;32.40;;;;;;;;;;5114834;28;20051;-68
2021/12/16 11:30:22;;;;;;;111.28;29.40;;;;;;;;;;5115503;28;20044;-69
2021/12/16 11:32:49;;;;;;;163.52;35.70;;;;;;;;;;5108867;28;20050;-70
2021/12/16 11:35:23;;;;;;;160.73;35.08;;;;;;;;;;5109514;28;20044;-68
2021/12/16 11:37:49;;;;;;;205.20;36.72;;;;;;;;;;5115185;28;20095;-68
2021/12/16 11:40:15;;;;;;;157.10;34.58;;;;;;;;;;5115181;28;20478;-67
2021/12/16 11:42:41;;;;;;;143.18;32.70;;;;;;;;;;5115840;28;20047;-68
2021/12/16 11:45:08;;;;;;;120.22;33.05;;;;;;;;;;5114739;28;20044;-68
2021/12/16 11:47:35;;;;;;;126.72;32.35;;;;;;;;;;5114370;28;20127;-68
2021/12/16 11:50:07;;;;;;;125.53;32.13;;;;;;;;;;5114318;28;20073;-68
2021/12/16 11:52:35;;;;;;;129.20;32.95;;;;;;;;;;5114812;28;20040;-68
2021/12/16 11:55:05;;;;;;;124.18;32.03;;;;;;;;;;5096659;28;20502;-68
2021/12/16 11:57:33;;;;;;;112.88;30.90;;;;;;;;;;5113568;28;20044;-69
2021/12/16 12:00:10;;;;;;;103.85;29.95;;;;;;;;;;5114727;28;20044;-68
2021/12/16 12:02:44;;;;;;;88.65;27.02;;;;;;;;;;5113168;28;20043;-69
2021/12/16 12:05:23;;;;;;;94.38;29.52;;;;;;;;;;5115166;28;20096;-68
2021/12/16 12:07:52;;;;;;;99.05;29.63;;;;;;;;;;5097837;28;20075;-68
2021/12/16 12:10:25;;;;;;;;;;;;;;;;;;5115519;28;20052;-69
2021/12/16 12:12:51;;;;;;;96.00;28.85;;;;;;;;;;5114998;28;19919;-68
2021/12/16 12:15:20;;;;;;;;;;;;;;;;;;5115049;28;20043;-69
2021/12/16 12:17:50;;;;;;;77.00;25.45;;;;;;;;;;5097877;28;19920;-67
2021/12/16 12:20:16;;;;;;;85.63;27.83;;;;;;;;;;5114225;28;20048;-68
2021/12/16 12:22:42;;;;;;;78.68;25.08;;;;;;;;;;5114346;28;20040;-68
2021/12/16 12:25:08;;;;;;;91.63;28.10;;;;;;;;;;5115417;28;20040;-68
2021/12/16 12:27:34;;;;;;;77.47;26.48;;;;;;;;;;5115110;28;20046;-68
2021/12/16 12:30:05;;;;;;;90.20;29.23;;;;;;;;;;5114559;28;20044;-67
2021/12/16 12:32:32;;;;;;;85.38;28.17;;;;;;;;;;5113589;28;20074;-68
2021/12/16 12:35:00;;;;;;;85.30;28.13;;;;;;;;;;5115302;28;20103;-68
2021/12/16 12:37:29;;;;;;;92.78;28.77;;;;;;;;;;5114437;28;20108;-69
2021/12/16 12:40:00;;;;;;;99.78;30.92;;;;;;;;;;5114666;28;20070;-68
2021/12/16 12:42:26;;;;;;;83.63;27.27;;;;;;;;;;5110964;28;20043;-68
2021/12/16 12:44:52;;;;;;;98.38;29.60;;;;;;;;;;5104259;28;20115;-69
2021/12/16 12:47:23;;;;;;;93.05;28.45;;;;;;;;;;5101429;28;20401;-68
2021/12/16 12:49:49;;;;;;;81.35;27.25;;;;;;;;;;5099594;28;20076;-68
2021/12/16 12:52:20;;;;;;;90.45;27.48;;;;;;;;;;5100496;28;20036;-69
2021/12/16 12:54:57;;;;;;;89.15;27.70;;;;;;;;;;5100728;28;20040;-68
2021/12/16 12:57:31;;;;;;;98.88;29.45;;;;;;;;;;5099250;28;20059;-68
2021/12/16 12:59:57;;;;;;;93.80;26.67;;;;;;;;;;5082957;28;20044;-69
2021/12/16 13:02:35;;;;;;;73.40;25.00;;;;;;;;;;5102132;28;20044;-68
2021/12/16 13:05:00;;;;;;;78.97;25.33;;;;;;;;;;5099656;28;20044;-68
2021/12/16 13:07:47;;;;;;;78.28;25.33;;;;;;;;;;5103312;28;20081;-68
2021/12/16 13:10:13;;;;;;;83.50;25.88;;;;;;;;;;5107729;28;20048;-69
2021/12/16 13:12:45;;;;;;;78.45;25.98;;;;;;;;;;5105999;28;20089;-69
2021/12/16 13:15:22;;;;;;;83.38;25.98;;;;;;;;;;5105799;28;20051;-69
2021/12/16 13:23:31;;;;;;;76.78;25.50;;;;;;;;;;5108625;28;20083;-69
2021/12/16 13:31:07;;;;;;;83.07;25.25;;;;;;;;;;5108633;28;20394;-69
2021/12/16 13:33:52;;;;;;;81.72;24.65;;;;;;;;;;5104748;28;20052;-69
2021/12/16 13:36:28;;;;;;;76.30;24.48;;;;;;;;;;5105729;28;20068;-68
2021/12/16 13:38:58;;;;;;;74.95;23.08;;;;;;;;;;5104120;28;20040;-68
2021/12/16 13:41:30;;;;;;;69.80;23.38;;;;;;;;;;5089154;28;20555;-68
2021/12/16 13:44:03;;;;;;;73.20;23.92;;;;;;;;;;5106726;28;20040;-69
2021/12/16 13:46:40;;;;;;;82.30;24.35;;;;;;;;;;5103765;28;20052;-68
2021/12/16 13:58:12;;;;;;;111.60;27.48;;;;;;;;;;5110341;28;20047;-68
2021/12/16 13:58:43;;;;;;;70.68;22.02;;;;;;;;;;5110300;28;20055;-68
2021/12/16 14:06:51;;;;;;;78.15;24.67;;;;;;;;;;5110239;28;20044;-68
2021/12/16 14:09:19;;;;;;;96.15;25.38;;;;;;;;;;5109175;28;20051;-68
2021/12/16 14:14:46;;;;;;;71.60;21.92;;;;;;;;;;5105265;28;20069;-69
2021/12/16 14:18:13;;;;;;;71.55;23.88;;;;;;;;;;5109811;28;20035;-67
2021/12/16 14:23:38;;;;;;;66.55;21.13;;;;;;;;;;5115027;28;20107;-67
2021/12/16 14:40:01;;;;;;;76.00;23.85;;;;;;;;;;5115558;28;20051;-67
2021/12/16 14:42:42;;;;;;;70.72;21.83;;;;;;;;;;5114212;28;20093;-67
2021/12/16 14:51:13;;;;;;;84.93;25.25;;;;;;;;;;5115578;28;20051;-68
2021/12/16 14:53:39;;;;;;;88.82;24.25;;;;;;;;;;5097840;28;20067;-69
2021/12/16 14:56:25;;;;;;;87.75;25.15;;;;;;;;;;5115668;28;20107;-67
2021/12/16 14:58:53;;;;;;;98.45;27.60;;;;;;;;;;5115538;28;20070;-68
2021/12/16 15:01:31;;;;;;;109.03;26.23;;;;;;;;;;5115138;28;20031;-68
2021/12/16 15:03:58;;;;;;;99.78;28.38;;;;;;;;;;5097225;28;20038;-68
2021/12/16 15:06:38;;;;;;;90.07;25.65;;;;;;;;;;5114930;28;20040;-68
2021/12/16 15:09:14;;;;;;;105.55;27.88;;;;;;;;;;5097821;28;20077;-68
2021/12/16 15:11:52;;;;;;;87.10;26.27;;;;;;;;;;5113749;28;20102;-68
2021/12/16 15:14:33;;;;;;;95.43;26.42;;;;;;;;;;5114683;28;20406;-68
2021/12/16 15:17:17;;;;;;;92.65;26.35;;;;;;;;;;5097757;28;20056;-68
2021/12/16 15:45:04;;;;;;;100.63;25.33;;;;;;;;;;5116712;28;20051;-68
2021/12/16 15:47:30;;;;;;;98.95;23.73;;;;;;;;;;5110333;28;20059;-66
2021/12/16 15:49:58;;;;;;;107.65;24.90;;;;;;;;;;5112297;28;20430;-67
2021/12/16 15:52:24;;;;;;;93.70;24.15;;;;;;;;;;5113914;28;20073;-67
2021/12/16 15:54:52;;;;;;;91.97;22.60;;;;;;;;;;5111518;28;20062;-70
2021/12/16 15:57:21;;;;;;;98.45;23.50;;;;;;;;;;5095243;28;20112;-68
2021/12/16 15:59:53;;;;;;;116.43;26.10;;;;;;;;;;5113410;28;20099;-69
2021/12/16 16:02:19;;;;;;;135.20;26.08;;;;;;;;;;5110229;28;20111;-68
2021/12/16 16:04:46;;;;;;;174.68;28.67;;;;;;;;;;5115600;28;20055;-67
2021/12/16 16:07:13;;;;;;;159.85;28.42;;;;;;;;;;5099725;28;20091;-68
2021/12/16 16:09:43;;;;;;;132.85;25.40;;;;;;;;;;5114317;28;20036;-67
2021/12/16 16:12:11;;;;;;;114.32;23.02;;;;;;;;;;5117738;28;20024;-66
2021/12/16 16:14:41;;;;;;;166.23;29.00;;;;;;;;;;5115973;28;20032;-66
2021/12/16 16:17:14;;;;;;;167.30;27.92;;;;;;;;;;5116583;28;20039;-66
2021/12/16 16:19:40;;;;;;;199.82;30.85;;;;;;;;;;5115545;28;20048;-67
2021/12/16 16:22:07;;;;;;;195.88;30.48;;;;;;;;;;5114307;28;20059;-67
2021/12/16 16:24:38;;;;;;;198.15;30.98;;;;;;;;;;5116791;28;20020;-67
2021/12/16 16:27:06;;;;;;;258.30;33.70;;;;;;;;;;5118031;28;20055;-67
2021/12/16 16:29:33;;;;;;;204.90;31.48;;;;;;;;;;5117942;28;20054;-68
2021/12/16 16:32:00;;;;;;;102.53;24.80;;;;;;;;;;5117231;28;20088;-67
2021/12/16 16:34:28;;;;;;;98.97;25.23;;;;;;;;;;5115820;28;20079;-69
2021/12/16 16:36:56;;;;;;;131.60;28.02;;;;;;;;;;5114537;28;20087;-69
2021/12/16 16:39:24;;;;;;;115.73;25.67;;;;;;;;;;5098125;28;20070;-69
2021/12/16 16:41:51;;;;;;;163.73;30.10;;;;;;;;;;5120124;28;20040;-66
2021/12/16 16:44:19;;;;;;;116.20;26.80;;;;;;;;;;5118723;28;20406;-69
2021/12/16 16:46:55;;;;;;;110.40;26.30;;;;;;;;;;5118692;28;20052;-70
2021/12/16 16:49:30;;;;;;;154.32;26.00;;;;;;;;;;5118849;28;20051;-68
2021/12/16 16:52:00;;;;;;;132.07;25.27;;;;;;;;;;5118550;28;20062;-67
2021/12/16 16:54:26;;;;;;;94.32;22.23;;;;;;;;;;5117636;28;20051;-67
2021/12/16 16:57:03;;;;;;;88.80;24.60;;;;;;;;;;5118116;28;20044;-68
2021/12/16 16:59:39;;;;;;;95.80;24.60;;;;;;;;;;5118385;28;20048;-68
2021/12/16 17:02:17;;;;;;;88.72;21.58;;;;;;;;;;5118244;28;20050;-67
2021/12/16 17:04:44;;;;;;;85.95;21.73;;;;;;;;;;5118827;28;20056;-67
2021/12/16 17:07:10;;;;;;;70.85;20.63;;;;;;;;;;5117050;28;20032;-67
2021/12/16 17:09:37;;;;;;;133.00;23.27;;;;;;;;;;5115547;28;20047;-66
2021/12/16 17:12:10;;;;;;;77.47;21.10;;;;;;;;;;5116476;28;20028;-67
2021/12/16 17:14:40;;;;;;;95.65;21.90;;;;;;;;;;5114666;28;20052;-67
2021/12/16 17:17:21;;;;;;;136.80;24.42;;;;;;;;;;5118694;28;20059;-67
2021/12/16 17:20:08;;;;;;;133.85;22.02;;;;;;;;;;5117186;28;20048;-66
2021/12/16 17:22:40;;;;;;;82.55;18.65;;;;;;;;;;5117400;28;20047;-67
2021/12/16 17:25:07;;;;;;;124.60;28.92;;;;;;;;;;5118030;28;20048;-67
2021/12/16 17:27:39;;;;;;;109.93;23.08;;;;;;;;;;5116644;28;20126;-67
2021/12/16 17:30:10;;;;;;;94.30;21.30;;;;;;;;;;5117226;28;20040;-67
2021/12/16 17:32:39;;;;;;;152.00;24.23;;;;;;;;;;5117932;28;20024;-67
2021/12/16 17:35:06;;;;;;;;;;;;;;;;;;5115321;28;20055;-67
2021/12/16 17:37:41;;;;;;;221.98;26.83;;;;;;;;;;5133586;28;19934;-68
2021/12/16 17:40:10;;;;;;;192.90;25.13;;;;;;;;;;5115564;28;20048;-67
2021/12/16 17:42:36;;;;;;;;;;;;;;;;;;5115175;28;20083;-66
2021/12/16 17:45:06;;;;;;;136.63;21.83;;;;;;;;;;5113488;28;19920;-67
2021/12/16 17:47:33;;;;;;;168.57;23.52;;;;;;;;;;5094259;28;20052;-68
2021/12/16 17:50:05;;;;;;;271.60;28.75;;;;;;;;;;5110909;28;20055;-67
2021/12/16 17:52:33;;;;;;;144.77;21.35;;;;;;;;;;5111311;28;20036;-68
2021/12/16 17:55:01;;;;;;;285.95;30.33;;;;;;;;;;5111667;28;20089;-68
2021/12/16 17:57:32;;;;;;;115.57;22.35;;;;;;;;;;5111847;28;20048;-68
2021/12/16 18:00:00;;;;;;;98.65;21.80;;;;;;;;;;5112115;28;20052;-68
2021/12/16 18:02:26;;;;;;;87.30;20.33;;;;;;;;;;5112483;28;20040;-67
2021/12/16 18:04:54;;;;;;;73.82;19.60;;;;;;;;;;5112383;28;20040;-67
2021/12/16 18:07:21;;;;;;;94.05;20.65;;;;;;;;;;5094265;28;20044;-67
2021/12/16 18:09:48;;;;;;;103.55;21.85;;;;;;;;;;5112384;28;20040;-67
2021/12/16 18:12:22;;;;;;;122.75;20.38;;;;;;;;;;5111991;28;20040;-68